sensor_id;sensor_type;location;lat;lon;timestamp;pressure;altitude;pressure_sealevel;temperature;humidity
13080;BME280;6606;49.154;9.280;2024-01-11T00:02:38;100773.75;;;-6.03;100.00
13080;BME280;6606;49.154;9.280;2024-01-11T00:05:20;100766.72;;;-6.07;100.00
13080;BME280;6606;49.154;9.280;2024-01-11T00:08:04;100770.09;;;-6.10;100.00
13080;BME280;6606;49.154;9.280;2024-01-11T00:10:45;100772.66;;;-6.11;100.00
13080;BME280;6606;49.154;9.280;2024-01-11T00:13:27;100770.94;;;-6.11;100.00
13080;BME280;6606;49.154;9.280;2024-01-11T00:16:09;100771.03;;;-6.08;100.00
13080;BME280;6606;49.154;9.280;2024-01-11T00:18:51;100766.59;;;-6.12;100.00
13080;BME280;6606;49.154;9.280;2024-01-11T00:21:32;100766.34;;;-6.20;100.00
13080;BME280;6606;49.154;9.280;2024-01-11T00:24:15;100766.97;;;-6.28;100.00
13080;BME280;6606;49.154;9.280;2024-01-11T00:26:57;100766.31;;;-6.21;100.00
13080;BME280;6606;49.154;9.280;2024-01-11T00:29:39;100771.53;;;-6.20;100.00
13080;BME280;6606;49.154;9.280;2024-01-11T00:32:20;100779.28;;;-6.20;100.00
13080;BME280;6606;49.154;9.280;2024-01-11T00:35:03;100782.78;;;-6.18;100.00
13080;BME280;6606;49.154;9.280;2024-01-11T00:37:45;100776.69;;;-6.20;100.00
13080;BME280;6606;49.154;9.280;2024-01-11T00:40:28;100771.19;;;-6.32;100.00
13080;BME280;6606;49.154;9.280;2024-01-11T00:43:09;100777.38;;;-6.27;100.00
13080;BME280;6606;49.154;9.280;2024-01-11T00:45:51;100782.78;;;-6.18;100.00
13080;BME280;6606;49.154;9.280;2024-01-11T00:48:33;100768.03;;;-6.22;100.00
13080;BME280;6606;49.154;9.280;2024-01-11T00:51:15;100776.66;;;-6.21;100.00
13080;BME280;6606;49.154;9.280;2024-01-11T00:53:57;100770.53;;;-6.25;100.00
13080;BME280;6606;49.154;9.280;2024-01-11T00:56:40;100775.97;;;-6.16;100.00
13080;BME280;6606;49.154;9.280;2024-01-11T00:59:21;100784.44;;;-6.20;100.00
13080;BME280;6606;49.154;9.280;2024-01-11T01:02:03;100788.75;;;-6.20;100.00
13080;BME280;6606;49.154;9.280;2024-01-11T01:04:45;100798.13;;;-6.24;100.00
13080;BME280;6606;49.154;9.280;2024-01-11T01:07:26;100799.97;;;-6.20;100.00
13080;BME280;6606;49.154;9.280;2024-01-11T01:10:08;100796.28;;;-6.28;100.00
13080;BME280;6606;49.154;9.280;2024-01-11T01:12:51;100795.25;;;-6.33;100.00
13080;BME280;6606;49.154;9.280;2024-01-11T01:15:33;100798.69;;;-6.34;100.00
13080;BME280;6606;49.154;9.280;2024-01-11T01:18:15;100786.72;;;-6.30;100.00
13080;BME280;6606;49.154;9.280;2024-01-11T01:20:57;100788.19;;;-6.39;100.00
13080;BME280;6606;49.154;9.280;2024-01-11T01:23:38;100788.88;;;-6.44;100.00
13080;BME280;6606;49.154;9.280;2024-01-11T01:26:20;100787.13;;;-6.45;100.00
13080;BME280;6606;49.154;9.280;2024-01-11T01:29:03;100794.91;;;-6.44;100.00
13080;BME280;6606;49.154;9.280;2024-01-11T01:31:45;100799.53;;;-6.35;100.00
13080;BME280;6606;49.154;9.280;2024-01-11T01:34:27;100799.63;;;-6.32;100.00
13080;BME280;6606;49.154;9.280;2024-01-11T01:37:09;100796.28;;;-6.28;100.00
13080;BME280;6606;49.154;9.280;2024-01-11T01:39:50;100792.78;;;-6.30;100.00
13080;BME280;6606;49.154;9.280;2024-01-11T01:42:32;100800.31;;;-6.38;100.00
13080;BME280;6606;49.154;9.280;2024-01-11T01:45:15;100806.16;;;-6.43;100.00
13080;BME280;6606;49.154;9.280;2024-01-11T01:47:57;100807.06;;;-6.41;100.00
13080;BME280;6606;49.154;9.280;2024-01-11T01:50:39;100811.75;;;-6.29;100.00
13080;BME280;6606;49.154;9.280;2024-01-11T01:53:24;100815.22;;;-6.29;100.00
13080;BME280;6606;49.154;9.280;2024-01-11T01:56:09;100812.56;;;-6.30;100.00
13080;BME280;6606;49.154;9.280;2024-01-11T01:58:52;100818.66;;;-6.28;100.00
13080;BME280;6606;49.154;9.280;2024-01-11T02:01:36;100827.41;;;-6.25;100.00
13080;BME280;6606;49.154;9.280;2024-01-11T02:04:18;100827.41;;;-6.25;100.00
13080;BME280;6606;49.154;9.280;2024-01-11T02:06:59;100824.81;;;-6.25;100.00
13080;BME280;6606;49.154;9.280;2024-01-11T02:09:42;100820.28;;;-6.32;100.00
13080;BME280;6606;49.154;9.280;2024-01-11T02:12:25;100822.03;;;-6.31;100.00
13080;BME280;6606;49.154;9.280;2024-01-11T02:15:07;100816.88;;;-6.31;100.00
13080;BME280;6606;49.154;9.280;2024-01-11T02:17:50;100814.25;;;-6.32;100.00
13080;BME280;6606;49.154;9.280;2024-01-11T02:20:32;100808.19;;;-6.33;100.00
13080;BME280;6606;49.154;9.280;2024-01-11T02:23:17;100802.97;;;-6.34;100.00
13080;BME280;6606;49.154;9.280;2024-01-11T02:26:02;100790.22;;;-6.28;100.00
13080;BME280;6606;49.154;9.280;2024-01-11T02:28:44;100797.28;;;-6.23;100.00
13080;BME280;6606;49.154;9.280;2024-01-11T02:31:26;100797.34;;;-6.21;100.00
13080;BME280;6606;49.154;9.280;2024-01-11T02:34:08;100803.41;;;-6.21;100.00
13080;BME280;6606;49.154;9.280;2024-01-11T02:36:51;100806.22;;;-6.13;100.00
13080;BME280;6606;49.154;9.280;2024-01-11T02:39:34;100805.66;;;-6.03;100.00
13080;BME280;6606;49.154;9.280;2024-01-11T02:42:17;100810.88;;;-6.01;100.00
13080;BME280;6606;49.154;9.280;2024-01-11T02:45:00;100806.38;;;-6.07;100.00
13080;BME280;6606;49.154;9.280;2024-01-11T02:47:42;100799.50;;;-6.06;100.00
13080;BME280;6606;49.154;9.280;2024-01-11T02:50:24;100803.94;;;-6.02;100.00
13080;BME280;6606;49.154;9.280;2024-01-11T02:53:05;100809.13;;;-6.02;100.00
13080;BME280;6606;49.154;9.280;2024-01-11T02:55:47;100797.13;;;-6.00;100.00
13080;BME280;6606;49.154;9.280;2024-01-11T02:58:30;100800.53;;;-6.01;100.00
13080;BME280;6606;49.154;9.280;2024-01-11T03:01:12;100803.00;;;-6.06;100.00
13080;BME280;6606;49.154;9.280;2024-01-11T03:03:54;100799.50;;;-6.06;100.00
13080;BME280;6606;49.154;9.280;2024-01-11T03:06:36;100797.75;;;-6.07;100.00
13080;BME280;6606;49.154;9.280;2024-01-11T03:09:17;100795.25;;;-6.04;100.00
13080;BME280;6606;49.154;9.280;2024-01-11T03:11:59;100790.94;;;-6.05;100.00
13080;BME280;6606;49.154;9.280;2024-01-11T03:14:42;100792.75;;;-6.01;100.00
13080;BME280;6606;49.154;9.280;2024-01-11T03:17:24;100803.94;;;-6.02;100.00
13080;BME280;6606;49.154;9.280;2024-01-11T03:20:07;100799.63;;;-6.03;100.00
13080;BME280;6606;49.154;9.280;2024-01-11T03:22:49;100791.56;;;-6.12;100.00
13080;BME280;6606;49.154;9.280;2024-01-11T03:25:30;100788.56;;;-6.26;100.00
13080;BME280;6606;49.154;9.280;2024-01-11T03:28:12;100789.34;;;-6.29;100.00
13080;BME280;6606;49.154;9.280;2024-01-11T03:30:55;100796.19;;;-6.31;100.00
13080;BME280;6606;49.154;9.280;2024-01-11T03:33:37;100795.50;;;-6.25;100.00
13080;BME280;6606;49.154;9.280;2024-01-11T03:36:23;100784.38;;;-6.23;100.00
13080;BME280;6606;49.154;9.280;2024-01-11T03:39:05;100786.41;;;-6.12;100.00
13080;BME280;6606;49.154;9.280;2024-01-11T03:41:47;100789.03;;;-6.11;100.00
13080;BME280;6606;49.154;9.280;2024-01-11T03:44:30;100797.75;;;-6.07;100.00
13080;BME280;6606;49.154;9.280;2024-01-11T03:47:13;100793.19;;;-6.16;100.00
13080;BME280;6606;49.154;9.280;2024-01-11T03:49:55;100788.75;;;-6.20;100.00
13080;BME280;6606;49.154;9.280;2024-01-11T03:52:38;100787.63;;;-6.30;100.00
13080;BME280;6606;49.154;9.280;2024-01-11T03:55:20;100788.50;;;-6.29;100.00
13080;BME280;6606;49.154;9.280;2024-01-11T03:58:02;100793.06;;;-6.21;100.00
13080;BME280;6606;49.154;9.280;2024-01-11T04:00:44;100786.25;;;-6.17;100.00
13080;BME280;6606;49.154;9.280;2024-01-11T04:03:27;100785.59;;;-6.11;100.00
13080;BME280;6606;49.154;9.280;2024-01-11T04:06:09;100785.38;;;-6.18;100.00
13080;BME280;6606;49.154;9.280;2024-01-11T04:08:50;100779.09;;;-6.26;100.00
13080;BME280;6606;49.154;9.280;2024-01-11T04:11:32;100790.19;;;-6.30;100.00
13080;BME280;6606;49.154;9.280;2024-01-11T04:14:14;100788.34;;;-6.34;100.00
13080;BME280;6606;49.154;9.280;2024-01-11T04:16:55;100781.44;;;-6.35;100.00
13080;BME280;6606;49.154;9.280;2024-01-11T04:19:39;100776.88;;;-6.42;100.00
13080;BME280;6606;49.154;9.280;2024-01-11T04:22:20;100776.88;;;-6.42;100.00
13080;BME280;6606;49.154;9.280;2024-01-11T04:25:03;100770.84;;;-6.43;100.00
13080;BME280;6606;49.154;9.280;2024-01-11T04:27:45;100776.81;;;-6.45;100.00
13080;BME280;6606;49.154;9.280;2024-01-11T04:30:27;100775.16;;;-6.43;100.00
13080;BME280;6606;49.154;9.280;2024-01-11T04:33:09;100777.41;;;-6.54;100.00
13080;BME280;6606;49.154;9.280;2024-01-11T04:35:52;100770.44;;;-6.56;100.00
13080;BME280;6606;49.154;9.280;2024-01-11T04:38:34;100779.16;;;-6.53;100.00
13080;BME280;6606;49.154;9.280;2024-01-11T04:41:15;100790.16;;;-6.58;100.00
13080;BME280;6606;49.154;9.280;2024-01-11T04:43:57;100788.22;;;-6.66;100.00
13080;BME280;6606;49.154;9.280;2024-01-11T04:46:39;100788.03;;;-6.72;100.00
13080;BME280;6606;49.154;9.280;2024-01-11T04:49:20;100793.22;;;-6.70;100.00
13080;BME280;6606;49.154;9.280;2024-01-11T04:52:04;100792.88;;;-6.81;100.00
13080;BME280;6606;49.154;9.280;2024-01-11T04:54:46;100801.38;;;-6.85;100.00
13080;BME280;6606;49.154;9.280;2024-01-11T04:57:27;100799.13;;;-6.74;100.00
13080;BME280;6606;49.154;9.280;2024-01-11T05:00:10;100801.97;;;-6.67;100.00
13080;BME280;6606;49.154;9.280;2024-01-11T05:02:52;100805.34;;;-6.68;100.00
13080;BME280;6606;49.154;9.280;2024-01-11T05:05:34;100808.88;;;-6.66;100.00
13080;BME280;6606;49.154;9.280;2024-01-11T05:08:17;100807.84;;;-6.71;100.00
13080;BME280;6606;49.154;9.280;2024-01-11T05:10:59;100809.63;;;-6.70;100.00
13080;BME280;6606;49.154;9.280;2024-01-11T05:13:41;100804.31;;;-6.73;100.00
13080;BME280;6606;49.154;9.280;2024-01-11T05:16:24;100808.00;;;-6.66;100.00
13080;BME280;6606;49.154;9.280;2024-01-11T05:19:05;100812.06;;;-6.73;100.00
13080;BME280;6606;49.154;9.280;2024-01-11T05:21:47;100813.31;;;-6.62;100.00
13080;BME280;6606;49.154;9.280;2024-01-11T05:24:30;100813.16;;;-6.66;100.00
13080;BME280;6606;49.154;9.280;2024-01-11T05:27:12;100820.84;;;-6.68;100.00
13080;BME280;6606;49.154;9.280;2024-01-11T05:29:54;100818.38;;;-6.65;100.00
13080;BME280;6606;49.154;9.280;2024-01-11T05:32:35;100823.69;;;-6.60;100.00
13080;BME280;6606;49.154;9.280;2024-01-11T05:35:17;100821.63;;;-6.70;100.00
13080;BME280;6606;49.154;9.280;2024-01-11T05:37:59;100818.91;;;-6.75;100.00
13080;BME280;6606;49.154;9.280;2024-01-11T05:40:42;100819.56;;;-6.80;100.00
13080;BME280;6606;49.154;9.280;2024-01-11T05:43:25;100818.78;;;-6.78;100.00
13080;BME280;6606;49.154;9.280;2024-01-11T05:46:06;100821.25;;;-6.83;100.00
13080;BME280;6606;49.154;9.280;2024-01-11T05:48:48;100831.47;;;-6.86;100.00
13080;BME280;6606;49.154;9.280;2024-01-11T05:51:30;100829.03;;;-6.81;100.00
13080;BME280;6606;49.154;9.280;2024-01-11T05:54:12;100826.31;;;-6.86;100.00
13080;BME280;6606;49.154;9.280;2024-01-11T05:56:55;100834.09;;;-6.84;100.00
13080;BME280;6606;49.154;9.280;2024-01-11T05:59:43;100825.84;;;-6.74;100.00
13080;BME280;6606;49.154;9.280;2024-01-11T06:02:25;100833.59;;;-6.74;100.00
13080;BME280;6606;49.154;9.280;2024-01-11T06:05:08;100828.31;;;-6.77;100.00
13080;BME280;6606;49.154;9.280;2024-01-11T06:07:50;100827.19;;;-6.85;100.00
13080;BME280;6606;49.154;9.280;2024-01-11T06:10:31;100829.13;;;-6.78;100.00
13080;BME280;6606;49.154;9.280;2024-01-11T06:13:14;100825.63;;;-6.80;100.00
13080;BME280;6606;49.154;9.280;2024-01-11T06:15:56;100830.38;;;-6.92;100.00
13080;BME280;6606;49.154;9.280;2024-01-11T06:18:38;100834.59;;;-6.94;100.00
13080;BME280;6606;49.154;9.280;2024-01-11T06:21:19;100837.28;;;-6.91;100.00
13080;BME280;6606;49.154;9.280;2024-01-11T06:24:01;100840.91;;;-6.86;100.00
13080;BME280;6606;49.154;9.280;2024-01-11T06:26:43;100832.13;;;-6.91;100.00
13080;BME280;6606;49.154;9.280;2024-01-11T06:29:27;100835.75;;;-6.86;100.00
13080;BME280;6606;49.154;9.280;2024-01-11T06:32:09;100841.56;;;-6.93;100.00
13080;BME280;6606;49.154;9.280;2024-01-11T06:34:50;100831.84;;;-7.00;100.00
13080;BME280;6606;49.154;9.280;2024-01-11T06:37:32;100841.13;;;-7.06;100.00
13080;BME280;6606;49.154;9.280;2024-01-11T06:40:14;100834.31;;;-7.03;100.00
13080;BME280;6606;49.154;9.280;2024-01-11T06:42:56;100851.84;;;-7.19;100.00
13080;BME280;6606;49.154;9.280;2024-01-11T06:45:42;100857.31;;;-7.10;100.00
13080;BME280;6606;49.154;9.280;2024-01-11T06:48:24;100842.81;;;-7.06;100.00
13080;BME280;6606;49.154;9.280;2024-01-11T06:51:06;100854.03;;;-7.06;100.00
13080;BME280;6606;49.154;9.280;2024-01-11T06:53:48;100857.56;;;-7.03;100.00
13080;BME280;6606;49.154;9.280;2024-01-11T06:56:30;100862.63;;;-7.07;100.00
13080;BME280;6606;49.154;9.280;2024-01-11T06:59:12;100866.00;;;-7.08;100.00
13080;BME280;6606;49.154;9.280;2024-01-11T07:01:55;100868.16;;;-7.20;100.00
13080;BME280;6606;49.154;9.280;2024-01-11T07:04:37;100869.97;;;-7.17;100.00
13080;BME280;6606;49.154;9.280;2024-01-11T07:07:19;100881.28;;;-7.14;100.00
13080;BME280;6606;49.154;9.280;2024-01-11T07:10:00;100881.28;;;-7.14;100.00
13080;BME280;6606;49.154;9.280;2024-01-11T07:12:42;100882.06;;;-7.16;100.00
13080;BME280;6606;49.154;9.280;2024-01-11T07:15:26;100896.56;;;-7.20;100.00
13080;BME280;6606;49.154;9.280;2024-01-11T07:18:09;100903.28;;;-7.25;100.00
13080;BME280;6606;49.154;9.280;2024-01-11T07:20:52;100909.31;;;-7.24;100.00
13080;BME280;6606;49.154;9.280;2024-01-11T07:23:33;100908.44;;;-7.25;100.00
13080;BME280;6606;49.154;9.280;2024-01-11T07:26:17;100905.09;;;-7.21;100.00
13080;BME280;6606;49.154;9.280;2024-01-11T07:29:02;100907.19;;;-7.11;100.00
13080;BME280;6606;49.154;9.280;2024-01-11T07:31:45;100912.38;;;-7.11;100.00
13080;BME280;6606;49.154;9.280;2024-01-11T07:34:28;100922.13;;;-7.02;100.00
13080;BME280;6606;49.154;9.280;2024-01-11T07:37:09;100917.88;;;-7.01;100.00
13080;BME280;6606;49.154;9.280;2024-01-11T07:39:51;100928.34;;;-6.97;100.00
13080;BME280;6606;49.154;9.280;2024-01-11T07:42:33;100931.00;;;-6.95;100.00
13080;BME280;6606;49.154;9.280;2024-01-11T07:45:15;100933.88;;;-6.86;100.00
13080;BME280;6606;49.154;9.280;2024-01-11T07:47:56;100936.44;;;-6.88;100.00
13080;BME280;6606;49.154;9.280;2024-01-11T07:50:40;100930.59;;;-6.82;100.00
13080;BME280;6606;49.154;9.280;2024-01-11T07:53:22;100935.88;;;-6.79;100.00
13080;BME280;6606;49.154;9.280;2024-01-11T07:56:04;100945.84;;;-6.64;100.00
13080;BME280;6606;49.154;9.280;2024-01-11T07:58:46;100950.25;;;-6.62;100.00
13080;BME280;6606;49.154;9.280;2024-01-11T08:01:27;100948.72;;;-6.56;100.00
13080;BME280;6606;49.154;9.280;2024-01-11T08:04:09;100956.59;;;-6.52;100.00
13080;BME280;6606;49.154;9.280;2024-01-11T08:06:52;100956.75;;;-6.47;100.00
13080;BME280;6606;49.154;9.280;2024-01-11T08:09:34;100946.72;;;-6.38;100.00
13080;BME280;6606;49.154;9.280;2024-01-11T08:12:16;100960.06;;;-6.26;100.00
13080;BME280;6606;49.154;9.280;2024-01-11T08:14:58;100957.16;;;-6.09;100.00
13080;BME280;6606;49.154;9.280;2024-01-11T08:17:44;100960.06;;;-5.99;100.00
13080;BME280;6606;49.154;9.280;2024-01-11T08:20:26;100963.91;;;-5.87;100.00
13080;BME280;6606;49.154;9.280;2024-01-11T08:23:09;100947.47;;;-5.88;100.00
13080;BME280;6606;49.154;9.280;2024-01-11T08:25:51;100957.06;;;-5.85;100.00
13080;BME280;6606;49.154;9.280;2024-01-11T08:28:33;100949.44;;;-5.81;100.00
13080;BME280;6606;49.154;9.280;2024-01-11T08:31:15;100963.72;;;-5.66;100.00
13080;BME280;6606;49.154;9.280;2024-01-11T08:33:56;100960.94;;;-5.44;100.00
13080;BME280;6606;49.154;9.280;2024-01-11T08:36:38;100958.75;;;-5.30;100.00
13080;BME280;6606;49.154;9.280;2024-01-11T08:39:21;100953.88;;;-5.19;100.00
13080;BME280;6606;49.154;9.280;2024-01-11T08:42:03;100962.06;;;-5.06;100.00
13080;BME280;6606;49.154;9.280;2024-01-11T08:44:45;100957.78;;;-5.03;100.00
13080;BME280;6606;49.154;9.280;2024-01-11T08:47:27;100965.84;;;-4.93;100.00
13080;BME280;6606;49.154;9.280;2024-01-11T08:50:12;100961.69;;;-4.88;100.00
13080;BME280;6606;49.154;9.280;2024-01-11T08:52:54;100960.94;;;-4.84;100.00
13080;BME280;6606;49.154;9.280;2024-01-11T08:55:38;100965.66;;;-4.69;100.00
13080;BME280;6606;49.154;9.280;2024-01-11T08:58:20;100970.81;;;-4.70;100.00
13080;BME280;6606;49.154;9.280;2024-01-11T09:01:02;100972.22;;;-4.50;100.00
13080;BME280;6606;49.154;9.280;2024-01-11T09:03:44;100974.31;;;-4.36;100.00
13080;BME280;6606;49.154;9.280;2024-01-11T09:06:28;100964.47;;;-4.15;100.00
13080;BME280;6606;49.154;9.280;2024-01-11T09:09:10;100970.69;;;-4.08;100.00
13080;BME280;6606;49.154;9.280;2024-01-11T09:11:55;100963.16;;;-3.98;100.00
13080;BME280;6606;49.154;9.280;2024-01-11T09:14:36;100965.56;;;-3.70;100.00
13080;BME280;6606;49.154;9.280;2024-01-11T09:17:19;100965.56;;;-3.69;100.00
13080;BME280;6606;49.154;9.280;2024-01-11T09:20:02;100968.66;;;-3.47;100.00
13080;BME280;6606;49.154;9.280;2024-01-11T09:22:44;100960.28;;;-3.36;100.00
13080;BME280;6606;49.154;9.280;2024-01-11T09:25:26;100957.56;;;-3.40;100.00
13080;BME280;6606;49.154;9.280;2024-01-11T09:28:10;100966.47;;;-3.29;100.00
13080;BME280;6606;49.154;9.280;2024-01-11T09:30:51;100964.41;;;-3.04;100.00
13080;BME280;6606;49.154;9.280;2024-01-11T09:33:33;100964.50;;;-2.98;100.00
13080;BME280;6606;49.154;9.280;2024-01-11T09:36:15;100977.78;;;-2.86;100.00
13080;BME280;6606;49.154;9.280;2024-01-11T09:38:56;100993.44;;;-2.83;100.00
13080;BME280;6606;49.154;9.280;2024-01-11T09:41:42;100984.13;;;-3.13;100.00
13080;BME280;6606;49.154;9.280;2024-01-11T09:44:26;100970.53;;;-2.99;100.00
13080;BME280;6606;49.154;9.280;2024-01-11T09:47:10;100968.16;;;-2.90;100.00
13080;BME280;6606;49.154;9.280;2024-01-11T09:49:53;100961.63;;;-2.68;100.00
13080;BME280;6606;49.154;9.280;2024-01-11T09:52:36;100954.13;;;-2.53;100.00
13080;BME280;6606;49.154;9.280;2024-01-11T09:55:18;100962.75;;;-2.55;100.00
13080;BME280;6606;49.154;9.280;2024-01-11T09:58:00;100953.53;;;-2.38;100.00
13080;BME280;6606;49.154;9.280;2024-01-11T10:00:44;100951.94;;;-2.30;100.00
13080;BME280;6606;49.154;9.280;2024-01-11T10:03:27;100945.88;;;-2.29;100.00
13080;BME280;6606;49.154;9.280;2024-01-11T10:06:10;100933.78;;;-2.27;100.00
13080;BME280;6606;49.154;9.280;2024-01-11T10:08:52;100937.69;;;-2.00;100.00
13080;BME280;6606;49.154;9.280;2024-01-11T10:11:34;100931.97;;;-1.76;100.00
13080;BME280;6606;49.154;9.280;2024-01-11T10:14:15;100947.34;;;-1.93;100.00
13080;BME280;6606;49.154;9.280;2024-01-11T10:17:01;100957.09;;;-1.78;100.00
13080;BME280;6606;49.154;9.280;2024-01-11T10:19:43;100949.78;;;-2.02;100.00
13080;BME280;6606;49.154;9.280;2024-01-11T10:22:24;100956.16;;;-1.83;100.00
13080;BME280;6606;49.154;9.280;2024-01-11T10:25:10;100956.31;;;-1.74;100.00
13080;BME280;6606;49.154;9.280;2024-01-11T10:27:52;100960.50;;;-1.84;100.00
13080;BME280;6606;49.154;9.280;2024-01-11T10:30:34;100968.19;;;-1.91;100.00
13080;BME280;6606;49.154;9.280;2024-01-11T10:33:19;100972.69;;;-1.83;100.00
13080;BME280;6606;49.154;9.280;2024-01-11T10:36:01;100963.31;;;-1.71;100.00
13080;BME280;6606;49.154;9.280;2024-01-11T10:38:46;100954.47;;;-1.81;100.00
13080;BME280;6606;49.154;9.280;2024-01-11T10:41:29;100945.03;;;-1.73;100.00
13080;BME280;6606;49.154;9.280;2024-01-11T10:44:19;100942.81;;;-1.48;100.00
13080;BME280;6606;49.154;9.280;2024-01-11T10:47:03;100947.09;;;-1.52;100.00
13080;BME280;6606;49.154;9.280;2024-01-11T10:49:49;100932.69;;;-1.27;100.00
13080;BME280;6606;49.154;9.280;2024-01-11T10:52:36;100929.34;;;-1.17;100.00
13080;BME280;6606;49.154;9.280;2024-01-11T10:55:24;100926.78;;;-1.09;100.00
13080;BME280;6606;49.154;9.280;2024-01-11T10:58:07;100927.72;;;-1.05;100.00
13080;BME280;6606;49.154;9.280;2024-01-11T11:00:52;100925.09;;;-1.07;100.00
13080;BME280;6606;49.154;9.280;2024-01-11T11:03:36;100928.84;;;-0.85;100.00
13080;BME280;6606;49.154;9.280;2024-01-11T11:06:20;100946.16;;;-0.89;100.00
13080;BME280;6606;49.154;9.280;2024-01-11T11:09:03;100953.22;;;-0.81;100.00
13080;BME280;6606;49.154;9.280;2024-01-11T11:11:45;100943.78;;;-0.69;100.00
13080;BME280;6606;49.154;9.280;2024-01-11T11:14:28;100940.19;;;-0.78;100.00
13080;BME280;6606;49.154;9.280;2024-01-11T11:17:10;100927.16;;;-0.78;100.00
13080;BME280;6606;49.154;9.280;2024-01-11T11:20:07;100918.63;;;-0.62;100.00
13080;BME280;6606;49.154;9.280;2024-01-11T11:23:03;100911.56;;;-0.72;100.00
13080;BME280;6606;49.154;9.280;2024-01-11T11:25:46;100915.91;;;-0.73;100.00
13080;BME280;6606;49.154;9.280;2024-01-11T11:28:28;100906.56;;;-0.51;100.00
13080;BME280;6606;49.154;9.280;2024-01-11T11:31:11;100915.25;;;-0.52;100.00
13080;BME280;6606;49.154;9.280;2024-01-11T11:33:53;100916.22;;;-0.40;100.00
13080;BME280;6606;49.154;9.280;2024-01-11T11:36:36;100912.88;;;-0.29;100.00
13080;BME280;6606;49.154;9.280;2024-01-11T11:39:18;100894.53;;;-0.33;100.00
13080;BME280;6606;49.154;9.280;2024-01-11T11:42:00;100899.94;;;-0.13;100.00
13080;BME280;6606;49.154;9.280;2024-01-11T11:44:48;100898.03;;;-0.34;100.00
13080;BME280;6606;49.154;9.280;2024-01-11T11:47:34;100898.06;;;-0.28;100.00
13080;BME280;6606;49.154;9.280;2024-01-11T11:50:21;100887.75;;;-0.11;100.00
13080;BME280;6606;49.154;9.280;2024-01-11T11:53:05;100897.50;;;0.08;100.00
13080;BME280;6606;49.154;9.280;2024-01-11T11:55:49;100886.19;;;0.14;100.00
13080;BME280;6606;49.154;9.280;2024-01-11T11:58:33;100882.66;;;0.06;100.00
13080;BME280;6606;49.154;9.280;2024-01-11T12:01:15;100887.94;;;0.12;100.00
13080;BME280;6606;49.154;9.280;2024-01-11T12:03:57;100875.81;;;0.26;100.00
13080;BME280;6606;49.154;9.280;2024-01-11T12:06:39;100868.81;;;0.19;100.00
13080;BME280;6606;49.154;9.280;2024-01-11T12:09:22;100874.16;;;0.37;100.00
13080;BME280;6606;49.154;9.280;2024-01-11T12:12:04;100874.06;;;0.25;100.00
13080;BME280;6606;49.154;9.280;2024-01-11T12:14:46;100865.44;;;0.35;100.00
13080;BME280;6606;49.154;9.280;2024-01-11T12:17:29;100870.69;;;0.41;100.00
13080;BME280;6606;49.154;9.280;2024-01-11T12:20:11;100857.66;;;0.52;100.00
13080;BME280;6606;49.154;9.280;2024-01-11T12:22:53;100853.34;;;0.56;100.00
13080;BME280;6606;49.154;9.280;2024-01-11T12:25:36;100868.22;;;0.69;100.00
13080;BME280;6606;49.154;9.280;2024-01-11T12:28:18;100865.59;;;0.74;100.00
13080;BME280;6606;49.154;9.280;2024-01-11T12:31:01;100859.41;;;0.58;100.00
13080;BME280;6606;49.154;9.280;2024-01-11T12:33:44;100863.00;;;0.77;100.00
13080;BME280;6606;49.154;9.280;2024-01-11T12:36:26;100855.97;;;0.68;100.00
13080;BME280;6606;49.154;9.280;2024-01-11T12:39:07;100847.31;;;0.75;100.00
13080;BME280;6606;49.154;9.280;2024-01-11T12:41:53;100842.06;;;0.74;100.00
13080;BME280;6606;49.154;9.280;2024-01-11T12:44:37;100833.41;;;0.96;100.00
13080;BME280;6606;49.154;9.280;2024-01-11T12:47:20;100843.00;;;0.85;100.00
13080;BME280;6606;49.154;9.280;2024-01-11T12:50:02;100843.84;;;0.82;100.00
13080;BME280;6606;49.154;9.280;2024-01-11T12:52:44;100835.16;;;0.91;100.00
13080;BME280;6606;49.154;9.280;2024-01-11T12:55:26;100825.56;;;0.95;100.00
13080;BME280;6606;49.154;9.280;2024-01-11T12:58:09;100834.28;;;0.94;100.00
13080;BME280;6606;49.154;9.280;2024-01-11T13:00:51;100836.06;;;0.98;100.00
13080;BME280;6606;49.154;9.280;2024-01-11T13:03:33;100849.97;;;0.90;100.00
13080;BME280;6606;49.154;9.280;2024-01-11T13:06:15;100837.78;;;0.99;100.00
13080;BME280;6606;49.154;9.280;2024-01-11T13:08:57;100828.16;;;0.95;100.00
13080;BME280;6606;49.154;9.280;2024-01-11T13:11:39;100831.72;;;1.06;100.00
13080;BME280;6606;49.154;9.280;2024-01-11T13:14:22;100818.63;;;1.15;100.00
13080;BME280;6606;49.154;9.280;2024-01-11T13:17:04;100822.09;;;1.16;100.00
13080;BME280;6606;49.154;9.280;2024-01-11T13:19:48;100824.75;;;1.22;100.00
13080;BME280;6606;49.154;9.280;2024-01-11T13:22:29;100809.03;;;1.14;100.00
13080;BME280;6606;49.154;9.280;2024-01-11T13:25:11;100815.13;;;0.98;100.00
13080;BME280;6606;49.154;9.280;2024-01-11T13:27:53;100815.13;;;1.04;100.00
13080;BME280;6606;49.154;9.280;2024-01-11T13:30:37;100823.81;;;1.03;100.00
13080;BME280;6606;49.154;9.280;2024-01-11T13:33:19;100822.13;;;1.17;100.00
13080;BME280;6606;49.154;9.280;2024-01-11T13:36:04;100834.31;;;1.15;100.00
13080;BME280;6606;49.154;9.280;2024-01-11T13:38:46;100840.41;;;1.19;100.00
13080;BME280;6606;49.154;9.280;2024-01-11T13:41:27;100842.16;;;1.18;100.00
13080;BME280;6606;49.154;9.280;2024-01-11T13:44:09;100848.28;;;1.26;100.00
13080;BME280;6606;49.154;9.280;2024-01-11T13:46:53;100843.91;;;1.10;98.72
13080;BME280;6606;49.154;9.280;2024-01-11T13:49:35;100843.94;;;1.19;100.00
13080;BME280;6606;49.154;9.280;2024-01-11T13:52:16;100848.25;;;1.05;100.00
13080;BME280;6606;49.154;9.280;2024-01-11T13:54:58;100861.38;;;1.22;100.00
13080;BME280;6606;49.154;9.280;2024-01-11T13:57:40;100855.28;;;1.30;100.00
13080;BME280;6606;49.154;9.280;2024-01-11T14:00:23;100857.88;;;1.26;98.27
13080;BME280;6606;49.154;9.280;2024-01-11T14:03:06;100856.16;;;1.36;98.70
13080;BME280;6606;49.154;9.280;2024-01-11T14:05:49;100867.50;;;1.31;99.70
13080;BME280;6606;49.154;9.280;2024-01-11T14:08:30;100867.50;;;1.28;100.00
13080;BME280;6606;49.154;9.280;2024-01-11T14:11:12;100868.38;;;1.33;100.00
13080;BME280;6606;49.154;9.280;2024-01-11T14:13:54;100864.00;;;1.28;99.72